Time;durP1;ratioP1;P1;durP2;ratioP2;P2;SDS_P1;SDS_P2;PMS_P1;PMS_P2;Temp;Humidity;BMP_temperature;BMP_pressure;BME280_temperature;BME280_humidity;BME280_pressure;Samples;Min_cycle;Max_cycle;Signal;HPM_P1;HPM_P2
2022/11/23 00:00:02;;;;;;;0.40;0.40;;;6.60;99.90;;;;;;4955460;28;20786;-69
2022/11/23 00:02:27;;;;;;;0.40;0.40;;;6.60;99.90;;;;;;4955670;28;20175;-67
2022/11/23 00:04:53;;;;;;;0.50;0.50;;;6.70;99.90;;;;;;4955717;28;20228;-68
2022/11/23 00:07:18;;;;;;;0.40;0.40;;;6.70;99.90;;;;;;4954407;29;20225;-67
2022/11/23 00:09:44;;;;;;;0.33;0.33;;;6.70;99.90;;;;;;4955418;28;20590;-66
2022/11/23 00:12:10;;;;;;;0.50;0.40;;;6.60;99.90;;;;;;4956127;28;20180;-67
2022/11/23 00:14:36;;;;;;;0.33;0.33;;;6.50;99.90;;;;;;4955492;28;20170;-68
2022/11/23 00:17:02;;;;;;;0.90;0.60;;;6.50;99.90;;;;;;4955340;28;20220;-67
2022/11/23 00:19:28;;;;;;;0.40;0.40;;;6.50;99.90;;;;;;4955203;28;20337;-69
2022/11/23 00:21:53;;;;;;;0.30;0.30;;;6.40;99.90;;;;;;4955536;28;20668;-69
2022/11/23 00:24:19;;;;;;;0.30;0.30;;;6.50;99.90;;;;;;4955558;28;20660;-67
2022/11/23 00:26:45;;;;;;;0.40;0.40;;;6.50;99.90;;;;;;4954079;28;20562;-69
2022/11/23 00:29:10;;;;;;;0.30;0.30;;;6.60;99.90;;;;;;4955188;28;20175;-68
2022/11/23 00:31:36;;;;;;;0.90;0.90;;;6.50;99.90;;;;;;4955545;28;20773;-67
2022/11/23 00:34:01;;;;;;;0.53;0.53;;;6.60;99.90;;;;;;4955333;28;20167;-69
2022/11/23 00:36:27;;;;;;;0.67;0.50;;;6.60;99.90;;;;;;4955145;28;20235;-67
2022/11/23 00:38:53;;;;;;;0.40;0.40;;;6.70;99.90;;;;;;4955176;28;20230;-69
2022/11/23 00:41:22;;;;;;;0.30;0.30;;;6.60;99.90;;;;;;4955252;28;20403;-68
2022/11/23 00:43:48;;;;;;;0.60;0.60;;;6.70;99.90;;;;;;4955218;28;20204;-69
2022/11/23 00:46:16;;;;;;;0.30;0.30;;;6.60;99.90;;;;;;4955086;28;20302;-69
2022/11/23 00:48:43;;;;;;;0.52;0.52;;;6.60;99.90;;;;;;4955053;28;20176;-69
2022/11/23 00:51:10;;;;;;;0.35;0.35;;;6.60;99.90;;;;;;4955110;28;20225;-67
2022/11/23 00:53:37;;;;;;;0.50;0.50;;;6.50;99.90;;;;;;4955243;29;20201;-68
2022/11/23 00:56:03;;;;;;;1.25;1.25;;;6.50;99.90;;;;;;4955082;28;20203;-68
2022/11/23 00:58:29;;;;;;;0.55;0.55;;;6.50;99.90;;;;;;4955292;28;20262;-67
2022/11/23 01:01:12;;;;;;;0.73;0.73;;;6.60;99.90;;;;;;4954945;28;20283;-68
2022/11/23 01:03:43;;;;;;;0.47;0.47;;;6.60;99.90;;;;;;4955181;28;20167;-69
2022/11/23 01:06:11;;;;;;;0.65;0.65;;;6.50;99.90;;;;;;4955086;28;20192;-68
2022/11/23 01:08:38;;;;;;;0.30;0.30;;;6.50;99.90;;;;;;4954994;28;20178;-69
2022/11/23 01:11:09;;;;;;;0.40;0.40;;;6.60;99.90;;;;;;4955281;28;20184;-67
2022/11/23 01:13:37;;;;;;;0.30;0.30;;;6.60;99.90;;;;;;4955128;28;20170;-68
2022/11/23 01:16:03;;;;;;;1.05;1.05;;;6.60;99.90;;;;;;4954780;28;20732;-69
2022/11/23 01:18:28;;;;;;;0.30;0.30;;;6.60;99.90;;;;;;4955049;28;20304;-67
2022/11/23 01:20:54;;;;;;;0.77;0.77;;;6.60;99.90;;;;;;4954611;28;20206;-69
2022/11/23 01:23:20;;;;;;;0.30;0.30;;;6.70;99.90;;;;;;4955479;28;20647;-69
2022/11/23 01:25:46;;;;;;;0.30;0.30;;;6.70;99.90;;;;;;4958307;28;21010;-67
2022/11/23 01:28:12;;;;;;;0.40;0.40;;;6.70;99.90;;;;;;4958485;28;20640;-68
2022/11/23 01:30:37;;;;;;;0.40;0.40;;;6.70;99.90;;;;;;4958239;29;20190;-68
2022/11/23 01:33:03;;;;;;;0.30;0.30;;;6.70;99.90;;;;;;4958419;28;20175;-68
2022/11/23 01:35:29;;;;;;;0.30;0.30;;;6.70;99.90;;;;;;4958121;28;20704;-68
2022/11/23 01:37:55;;;;;;;0.30;0.30;;;6.60;99.90;;;;;;4958449;28;20757;-68
2022/11/23 01:40:21;;;;;;;0.30;0.30;;;6.60;99.90;;;;;;4957946;28;20541;-67
2022/11/23 01:42:57;;;;;;;0.63;0.63;;;6.60;99.90;;;;;;4958078;28;20167;-68
2022/11/23 01:45:40;;;;;;;0.40;0.40;;;6.60;99.90;;;;;;4958261;28;20187;-69
2022/11/23 01:48:37;;;;;;;0.30;0.30;;;6.70;99.90;;;;;;4957990;28;20170;-69
2022/11/23 01:51:32;;;;;;;0.50;0.50;;;6.70;99.90;;;;;;4958094;28;20204;-66
2022/11/23 01:54:03;;;;;;;0.30;0.30;;;6.70;99.90;;;;;;4952128;29;20206;-68
2022/11/23 01:56:34;;;;;;;0.30;0.30;;;6.60;99.90;;;;;;4958064;28;20364;-68
2022/11/23 01:59:03;;;;;;;0.60;0.60;;;6.50;99.90;;;;;;4957752;28;20171;-68
2022/11/23 02:01:29;;;;;;;1.02;1.00;;;6.50;99.90;;;;;;4958100;28;20530;-68
2022/11/23 02:04:00;;;;;;;0.30;0.30;;;6.40;99.90;;;;;;4957747;28;20170;-69
2022/11/23 02:06:25;;;;;;;0.45;0.45;;;6.40;99.90;;;;;;4957621;28;20437;-69
2022/11/23 02:08:52;;;;;;;0.50;0.50;;;6.40;99.90;;;;;;4957592;28;20177;-67
2022/11/23 02:11:17;;;;;;;0.40;0.40;;;6.40;99.90;;;;;;4957817;28;20191;-69
2022/11/23 02:13:45;;;;;;;1.80;0.70;;;6.40;99.90;;;;;;4957632;28;20182;-67
2022/11/23 02:16:12;;;;;;;0.30;0.30;;;6.40;99.90;;;;;;4957350;28;20222;-69
2022/11/23 02:18:43;;;;;;;0.30;0.30;;;6.50;99.90;;;;;;4956114;29;20638;-67
2022/11/23 02:21:10;;;;;;;0.40;0.40;;;6.50;99.90;;;;;;4957401;28;20242;-66
2022/11/23 02:24:07;;;;;;;0.30;0.30;;;6.40;99.90;;;;;;4957372;28;20174;-66
2022/11/23 02:26:35;;;;;;;0.30;0.30;;;6.40;99.90;;;;;;4957277;28;20202;-67
2022/11/23 02:29:00;;;;;;;0.88;0.88;;;6.50;99.90;;;;;;4957166;28;20202;-68
2022/11/23 02:31:26;;;;;;;0.30;0.30;;;6.40;99.90;;;;;;4957393;28;20539;-67
2022/11/23 02:33:51;;;;;;;0.40;0.40;;;6.40;99.90;;;;;;4957151;28;20571;-67
2022/11/23 02:36:38;;;;;;;0.30;0.30;;;6.40;99.90;;;;;;4956219;28;20193;-67
2022/11/23 02:39:31;;;;;;;0.40;0.40;;;6.40;99.90;;;;;;4956769;28;20658;-68
2022/11/23 02:41:57;;;;;;;0.30;0.30;;;6.40;99.90;;;;;;4957421;28;20206;-69
2022/11/23 02:44:41;;;;;;;0.50;0.50;;;6.40;99.90;;;;;;4956972;28;20184;-68
2022/11/23 02:47:08;;;;;;;0.40;0.40;;;6.40;99.90;;;;;;4956961;28;20185;-68
2022/11/23 02:49:33;;;;;;;0.35;0.35;;;6.30;99.90;;;;;;4956961;28;20205;-69
2022/11/23 02:52:00;;;;;;;1.07;0.83;;;6.30;99.90;;;;;;4956973;28;20214;-69
2022/11/23 02:54:26;;;;;;;0.40;0.40;;;6.30;99.90;;;;;;4956793;28;20185;-68
2022/11/23 02:56:52;;;;;;;0.30;0.30;;;6.20;99.90;;;;;;4955422;28;20209;-68
2022/11/23 02:59:18;;;;;;;0.30;0.30;;;6.30;99.90;;;;;;4956635;28;20202;-68
2022/11/23 03:01:43;;;;;;;0.30;0.30;;;6.30;99.90;;;;;;4956716;28;20409;-68
2022/11/23 03:04:09;;;;;;;0.50;0.50;;;6.30;99.90;;;;;;4956675;28;20178;-67
2022/11/23 03:06:35;;;;;;;0.30;0.30;;;6.40;99.90;;;;;;4956370;28;20189;-68
2022/11/23 03:09:01;;;;;;;0.30;0.30;;;6.40;99.90;;;;;;4956294;28;20537;-68
2022/11/23 03:11:26;;;;;;;0.40;0.40;;;6.40;99.90;;;;;;4956632;28;20393;-67
2022/11/23 03:13:52;;;;;;;0.30;0.30;;;6.40;99.90;;;;;;4956583;28;20170;-67
2022/11/23 03:16:17;;;;;;;0.30;0.30;;;6.40;99.90;;;;;;4956298;28;20239;-66
2022/11/23 03:18:43;;;;;;;0.33;0.33;;;6.40;99.90;;;;;;4956284;28;20169;-68
2022/11/23 03:21:09;;;;;;;1.37;1.27;;;6.30;99.90;;;;;;4956204;28;20197;-69
2022/11/23 03:23:35;;;;;;;0.37;0.37;;;6.20;99.90;;;;;;4956324;28;20165;-68
2022/11/23 03:26:01;;;;;;;0.93;0.88;;;6.20;99.90;;;;;;4956284;28;20572;-66
2022/11/23 03:28:27;;;;;;;0.40;0.40;;;6.10;99.90;;;;;;4956178;28;20178;-69
2022/11/23 03:30:53;;;;;;;0.40;0.40;;;6.10;99.90;;;;;;4956044;28;20412;-68
2022/11/23 03:33:19;;;;;;;0.40;0.40;;;6.00;99.90;;;;;;4956322;28;20409;-68
2022/11/23 03:35:46;;;;;;;0.30;0.30;;;6.00;99.90;;;;;;4956142;28;20777;-68
2022/11/23 03:38:12;;;;;;;0.38;0.38;;;5.90;99.90;;;;;;4955950;28;20190;-68
2022/11/23 03:40:37;;;;;;;0.40;0.40;;;5.90;99.90;;;;;;4955782;28;20555;-69
2022/11/23 03:43:03;;;;;;;0.40;0.40;;;5.80;99.90;;;;;;4956089;28;20409;-67
2022/11/23 03:45:29;;;;;;;0.30;0.30;;;5.90;99.90;;;;;;4955833;28;20198;-69
2022/11/23 03:47:55;;;;;;;0.30;0.30;;;5.90;99.90;;;;;;4955624;28;20185;-67
2022/11/23 03:50:20;;;;;;;0.30;0.30;;;5.90;99.90;;;;;;4955810;28;20702;-66
2022/11/23 03:52:49;;;;;;;0.60;0.60;;;5.90;99.90;;;;;;4955897;28;20173;-68
2022/11/23 03:55:16;;;;;;;0.50;0.50;;;6.00;99.90;;;;;;4955832;28;20555;-67
2022/11/23 03:57:42;;;;;;;0.40;0.40;;;6.00;99.90;;;;;;4955902;28;20544;-66
2022/11/23 04:00:08;;;;;;;0.33;0.33;;;6.10;99.90;;;;;;4955610;28;20293;-67
2022/11/23 04:02:34;;;;;;;0.30;0.30;;;6.10;99.90;;;;;;4955711;28;20461;-69
2022/11/23 04:05:00;;;;;;;0.40;0.40;;;6.20;99.90;;;;;;4955678;28;20177;-67
2022/11/23 04:07:26;;;;;;;0.30;0.30;;;6.20;99.90;;;;;;4955528;28;20406;-67
2022/11/23 04:09:52;;;;;;;1.60;0.47;;;6.20;99.90;;;;;;4955529;28;20177;-68
2022/11/23 04:12:18;;;;;;;0.30;0.30;;;6.20;99.90;;;;;;4955749;28;20413;-67
2022/11/23 04:14:43;;;;;;;0.30;0.30;;;6.10;99.90;;;;;;4955752;28;20216;-68
2022/11/23 04:17:09;;;;;;;0.50;0.50;;;6.00;99.90;;;;;;4955261;28;20213;-67
2022/11/23 04:19:34;;;;;;;0.40;0.40;;;6.00;99.90;;;;;;4955254;28;20666;-68
2022/11/23 04:22:00;;;;;;;0.30;0.30;;;5.90;99.90;;;;;;4955548;28;20655;-68
2022/11/23 04:24:26;;;;;;;0.40;0.40;;;5.80;99.90;;;;;;4955823;28;20529;-69
2022/11/23 04:26:51;;;;;;;0.40;0.40;;;5.60;99.90;;;;;;4955341;28;20433;-67
2022/11/23 04:29:17;;;;;;;0.37;0.37;;;5.50;99.90;;;;;;4955319;28;20165;-68
2022/11/23 04:31:43;;;;;;;0.40;0.40;;;5.20;99.90;;;;;;4955487;28;20169;-67
2022/11/23 04:34:09;;;;;;;0.30;0.30;;;5.20;99.90;;;;;;4955484;28;20170;-66
2022/11/23 04:36:34;;;;;;;1.17;0.60;;;5.30;99.90;;;;;;4955256;28;20196;-68
2022/11/23 04:39:02;;;;;;;0.30;0.30;;;5.40;99.90;;;;;;4955031;28;20173;-68
2022/11/23 04:41:28;;;;;;;0.40;0.40;;;5.40;99.90;;;;;;4955327;28;20167;-68
2022/11/23 04:43:54;;;;;;;0.30;0.30;;;5.30;99.90;;;;;;4955434;28;20182;-69
2022/11/23 04:46:19;;;;;;;0.30;0.30;;;5.30;99.90;;;;;;4955113;28;20429;-68
2022/11/23 04:48:45;;;;;;;0.30;0.30;;;5.40;99.90;;;;;;4955064;28;20666;-66
2022/11/23 04:51:11;;;;;;;0.40;0.40;;;5.50;99.90;;;;;;4955271;28;20544;-69
2022/11/23 04:53:36;;;;;;;0.30;0.30;;;5.50;99.90;;;;;;4955221;28;20594;-68
2022/11/23 04:56:02;;;;;;;0.30;0.30;;;5.50;99.90;;;;;;4955345;28;20289;-67
2022/11/23 04:58:28;;;;;;;0.30;0.30;;;5.60;99.90;;;;;;4955781;28;20248;-69
2022/11/23 05:00:53;;;;;;;0.30;0.30;;;5.60;99.90;;;;;;4958772;28;20470;-67
2022/11/23 05:03:19;;;;;;;0.40;0.40;;;5.60;99.90;;;;;;4959054;28;20173;-67
2022/11/23 05:05:45;;;;;;;0.50;0.50;;;5.60;99.90;;;;;;4958823;28;20196;-68
2022/11/23 05:08:10;;;;;;;0.40;0.40;;;5.60;99.90;;;;;;4958906;28;20252;-69
2022/11/23 05:10:36;;;;;;;0.40;0.40;;;5.50;99.90;;;;;;4958606;28;20174;-67
2022/11/23 05:13:03;;;;;;;0.40;0.40;;;5.50;99.90;;;;;;4958755;28;20170;-68
2022/11/23 05:15:28;;;;;;;0.40;0.40;;;5.50;99.90;;;;;;4958527;28;20802;-67
2022/11/23 05:18:05;;;;;;;2.10;1.40;;;5.40;99.90;;;;;;4958478;28;20194;-66
2022/11/23 05:20:31;;;;;;;0.30;0.30;;;5.30;99.90;;;;;;4958227;28;20186;-68
2022/11/23 05:22:56;;;;;;;0.40;0.40;;;5.30;99.90;;;;;;4958503;28;20170;-67
2022/11/23 05:25:24;;;;;;;0.40;0.40;;;5.10;99.90;;;;;;4958270;28;20711;-66
2022/11/23 05:27:50;;;;;;;0.40;0.40;;;5.00;99.90;;;;;;4958612;28;20252;-67
2022/11/23 05:30:16;;;;;;;0.40;0.40;;;4.90;99.90;;;;;;4958123;28;20173;-69
2022/11/23 05:32:42;;;;;;;0.40;0.40;;;4.80;99.90;;;;;;4958374;28;20265;-69
2022/11/23 05:35:08;;;;;;;0.60;0.60;;;4.70;99.90;;;;;;4958540;28;20177;-67
2022/11/23 05:37:34;;;;;;;0.40;0.40;;;4.70;99.90;;;;;;4958223;28;20185;-68
2022/11/23 05:40:00;;;;;;;0.40;0.40;;;4.60;99.90;;;;;;4958028;28;20212;-68
2022/11/23 05:42:26;;;;;;;0.60;0.50;;;4.60;99.90;;;;;;4958119;28;20456;-66
2022/11/23 05:44:52;;;;;;;0.40;0.40;;;4.60;99.90;;;;;;4958182;29;20261;-66
2022/11/23 05:47:18;;;;;;;0.40;0.40;;;4.50;99.90;;;;;;4957925;28;20284;-66
2022/11/23 05:49:43;;;;;;;0.40;0.40;;;4.40;99.90;;;;;;4958030;28;20174;-68
2022/11/23 05:52:09;;;;;;;0.40;0.40;;;4.40;99.90;;;;;;4957834;28;20196;-69
2022/11/23 05:54:35;;;;;;;0.40;0.40;;;4.30;99.90;;;;;;4958216;28;20514;-66
2022/11/23 05:57:00;;;;;;;0.40;0.40;;;4.20;99.90;;;;;;4957811;28;20236;-67
2022/11/23 05:59:26;;;;;;;0.30;0.30;;;4.10;99.90;;;;;;4957614;28;20236;-67
2022/11/23 06:01:51;;;;;;;0.30;0.30;;;4.10;99.90;;;;;;4957814;28;20181;-68
2022/11/23 06:04:17;;;;;;;0.40;0.40;;;4.10;99.90;;;;;;4957889;28;20273;-67
2022/11/23 06:06:43;;;;;;;0.40;0.40;;;4.20;99.90;;;;;;4957684;28;20671;-69
2022/11/23 06:09:09;;;;;;;0.40;0.40;;;4.20;99.90;;;;;;4957588;28;20172;-69
2022/11/23 06:11:34;;;;;;;0.30;0.30;;;4.30;99.90;;;;;;4957718;28;20457;-67
2022/11/23 06:14:00;;;;;;;0.40;0.40;;;4.30;99.90;;;;;;4957614;28;20176;-67
2022/11/23 06:16:26;;;;;;;0.40;0.40;;;4.40;99.90;;;;;;4957361;28;20291;-67
2022/11/23 06:18:52;;;;;;;0.40;0.40;;;4.40;99.90;;;;;;4957290;28;20196;-66
2022/11/23 06:21:17;;;;;;;0.33;0.33;;;4.40;99.90;;;;;;4956190;29;20208;-66
2022/11/23 06:23:45;;;;;;;0.40;0.40;;;4.40;99.90;;;;;;4957454;28;20438;-68
2022/11/23 06:26:11;;;;;;;1.50;1.42;;;4.40;99.90;;;;;;4957369;28;20434;-68
2022/11/23 06:28:36;;;;;;;0.40;0.40;;;4.50;99.90;;;;;;4957119;28;20191;-67
2022/11/23 06:31:05;;;;;;;0.30;0.30;;;4.50;99.90;;;;;;4957203;28;20209;-67
2022/11/23 06:33:31;;;;;;;2.05;0.70;;;4.50;99.90;;;;;;4957460;28;20252;-69
2022/11/23 06:35:59;;;;;;;0.30;0.30;;;4.40;99.90;;;;;;4957275;28;20205;-67
2022/11/23 06:38:25;;;;;;;0.30;0.30;;;4.40;99.90;;;;;;4957351;28;20418;-69
2022/11/23 06:40:51;;;;;;;0.57;0.57;;;4.40;99.90;;;;;;4956929;28;20261;-67
2022/11/23 06:43:16;;;;;;;0.40;0.40;;;4.40;99.90;;;;;;4957025;28;20423;-68
2022/11/23 06:45:42;;;;;;;1.63;1.27;;;4.30;99.90;;;;;;4957052;28;20934;-67
2022/11/23 06:48:08;;;;;;;0.40;0.40;;;4.40;99.90;;;;;;4957376;28;20577;-67
2022/11/23 06:50:33;;;;;;;2.53;0.80;;;4.40;99.90;;;;;;4955702;29;20272;-66
2022/11/23 06:52:59;;;;;;;0.50;0.50;;;4.40;99.90;;;;;;4956826;28;20406;-68
2022/11/23 06:55:25;;;;;;;0.30;0.30;;;4.40;99.90;;;;;;4956858;28;20663;-66
2022/11/23 06:57:51;;;;;;;0.30;0.30;;;4.50;99.90;;;;;;4956762;28;20185;-67
2022/11/23 07:00:18;;;;;;;0.70;0.70;;;4.50;99.90;;;;;;4956407;28;20452;-66
2022/11/23 07:02:50;;;;;;;0.30;0.30;;;4.50;99.90;;;;;;4956890;28;20256;-65
2022/11/23 07:05:15;;;;;;;0.55;0.55;;;4.50;99.90;;;;;;4956856;28;20173;-69
2022/11/23 07:07:41;;;;;;;1.63;1.53;;;4.50;99.90;;;;;;4956757;28;20561;-68
2022/11/23 07:10:07;;;;;;;0.30;0.30;;;4.60;99.90;;;;;;4956510;28;20176;-66
2022/11/23 07:12:33;;;;;;;0.30;0.30;;;4.60;99.90;;;;;;4956677;28;20201;-68
2022/11/23 07:14:58;;;;;;;0.30;0.30;;;4.60;99.90;;;;;;4955246;28;20186;-68
2022/11/23 07:17:24;;;;;;;0.40;0.40;;;4.70;99.90;;;;;;4955081;29;20201;-68
2022/11/23 07:19:50;;;;;;;0.40;0.40;;;4.80;99.90;;;;;;4956190;28;20209;-67
2022/11/23 07:22:16;;;;;;;0.40;0.40;;;4.90;99.90;;;;;;4955910;28;20174;-68
2022/11/23 07:24:41;;;;;;;0.30;0.30;;;4.90;99.90;;;;;;4956448;28;20536;-67
2022/11/23 07:27:07;;;;;;;0.60;0.60;;;5.00;99.90;;;;;;4956164;28;20280;-66
2022/11/23 07:29:33;;;;;;;0.40;0.40;;;5.10;99.90;;;;;;4956074;28;20208;-68
2022/11/23 07:31:59;;;;;;;1.90;0.90;;;5.20;99.90;;;;;;4956349;28;20412;-69
2022/11/23 07:34:26;;;;;;;0.40;0.40;;;5.30;99.90;;;;;;4956071;28;20616;-67
2022/11/23 07:36:52;;;;;;;0.40;0.40;;;5.40;99.90;;;;;;4955963;28;20272;-67
2022/11/23 07:39:17;;;;;;;0.50;0.50;;;5.50;99.90;;;;;;4956009;28;20224;-67
2022/11/23 07:41:43;;;;;;;1.13;1.13;;;5.50;99.90;;;;;;4956265;28;20573;-67
2022/11/23 07:44:09;;;;;;;0.60;0.60;;;5.40;99.90;;;;;;4956129;28;20200;-66
2022/11/23 07:46:34;;;;;;;0.67;0.67;;;5.40;99.90;;;;;;4955827;28;20193;-67
2022/11/23 07:49:01;;;;;;;0.40;0.40;;;5.30;99.90;;;;;;4955698;28;20188;-68
2022/11/23 07:51:27;;;;;;;0.40;0.40;;;5.40;99.90;;;;;;4955830;28;20209;-68
2022/11/23 07:53:53;;;;;;;0.40;0.40;;;5.40;99.90;;;;;;4955998;28;20185;-68
2022/11/23 07:56:19;;;;;;;0.60;0.60;;;5.30;99.90;;;;;;4955718;28;20189;-66
2022/11/23 07:58:44;;;;;;;0.40;0.40;;;5.20;99.90;;;;;;4955523;28;20261;-66
2022/11/23 08:01:17;;;;;;;0.40;0.40;;;5.20;99.90;;;;;;4955633;28;20219;-67
2022/11/23 08:03:44;;;;;;;0.40;0.40;;;5.20;99.90;;;;;;4955904;28;20173;-66
2022/11/23 08:06:11;;;;;;;0.40;0.40;;;5.30;99.90;;;;;;4955535;28;20626;-68
2022/11/23 08:08:37;;;;;;;0.30;0.30;;;5.40;99.90;;;;;;4955457;28;20683;-68
2022/11/23 08:11:06;;;;;;;0.40;0.40;;;5.40;99.90;;;;;;4955684;28;20186;-68
2022/11/23 08:13:36;;;;;;;0.40;0.40;;;5.40;99.90;;;;;;4955762;28;20182;-66
2022/11/23 08:16:02;;;;;;;0.40;0.40;;;5.40;99.90;;;;;;4955493;28;20201;-69
2022/11/23 08:18:28;;;;;;;0.30;0.30;;;5.40;99.90;;;;;;4955642;28;20170;-67
2022/11/23 08:20:57;;;;;;;0.30;0.30;;;5.50;99.90;;;;;;4954137;29;20259;-68
2022/11/23 08:23:24;;;;;;;0.30;0.30;;;5.50;99.90;;;;;;4955531;28;20915;-69
2022/11/23 08:25:50;;;;;;;0.30;0.30;;;5.50;99.80;;;;;;4955502;28;20208;-68
2022/11/23 08:28:16;;;;;;;0.40;0.40;;;5.40;99.90;;;;;;4955815;28;20166;-67
2022/11/23 08:30:41;;;;;;;0.63;0.63;;;5.20;99.90;;;;;;4955303;28;20252;-66
2022/11/23 08:33:08;;;;;;;0.30;0.30;;;5.30;99.90;;;;;;4955529;28;20408;-67
2022/11/23 08:35:35;;;;;;;0.68;0.50;;;5.40;99.90;;;;;;4959406;28;20587;-68
2022/11/23 08:38:02;;;;;;;1.85;0.93;;;5.70;99.60;;;;;;4959316;28;20174;-67
2022/11/23 08:40:27;;;;;;;2.72;1.10;;;5.80;99.70;;;;;;4959005;28;20194;-68
2022/11/23 08:42:53;;;;;;;0.30;0.30;;;6.00;99.50;;;;;;4959250;28;20269;-67
2022/11/23 08:45:20;;;;;;;0.50;0.50;;;6.10;99.00;;;;;;4959139;28;20302;-69
2022/11/23 08:47:46;;;;;;;0.63;0.63;;;6.10;98.80;;;;;;4959251;28;20500;-67
2022/11/23 08:50:12;;;;;;;1.47;1.47;;;6.20;99.20;;;;;;4958948;28;20214;-67
2022/11/23 08:52:37;;;;;;;0.85;0.82;;;6.50;99.40;;;;;;4959217;28;20493;-69
2022/11/23 08:55:04;;;;;;;0.30;0.30;;;6.60;98.60;;;;;;4959064;28;20678;-68
2022/11/23 08:57:29;;;;;;;0.60;0.60;;;6.80;98.40;;;;;;4958890;28;20176;-67
2022/11/23 08:59:55;;;;;;;0.30;0.30;;;7.30;98.90;;;;;;4958745;28;20214;-68
2022/11/23 09:02:21;;;;;;;0.50;0.47;;;7.60;97.70;;;;;;4958981;28;20175;-69
2022/11/23 09:04:47;;;;;;;0.40;0.40;;;7.70;96.30;;;;;;4958995;28;20259;-67
2022/11/23 09:07:12;;;;;;;0.30;0.30;;;7.80;96.30;;;;;;4958759;28;20279;-69
2022/11/23 09:09:38;;;;;;;0.40;0.40;;;7.70;96.30;;;;;;4958652;28;20176;-67
2022/11/23 09:12:04;;;;;;;0.40;0.40;;;7.80;96.60;;;;;;4958733;28;20182;-67
2022/11/23 09:14:30;;;;;;;0.68;0.68;;;8.00;95.80;;;;;;4958616;28;20183;-67
2022/11/23 09:16:55;;;;;;;2.10;2.00;;;8.10;94.90;;;;;;4958701;28;20231;-68
2022/11/23 09:19:21;;;;;;;0.50;0.47;;;8.20;94.50;;;;;;4958382;28;20181;-67
2022/11/23 09:21:47;;;;;;;0.40;0.40;;;8.30;94.30;;;;;;4958806;28;20556;-67
2022/11/23 09:24:13;;;;;;;0.70;0.70;;;8.50;94.20;;;;;;4958419;28;20245;-68
2022/11/23 09:26:39;;;;;;;0.30;0.30;;;8.40;94.10;;;;;;4958385;28;20629;-67
2022/11/23 09:29:07;;;;;;;0.50;0.50;;;8.30;93.80;;;;;;4958401;28;20168;-67
2022/11/23 09:31:33;;;;;;;0.30;0.30;;;8.30;93.80;;;;;;4958446;28;20666;-69
2022/11/23 09:33:58;;;;;;;0.45;0.45;;;8.30;93.60;;;;;;4958380;28;20236;-69
2022/11/23 09:36:24;;;;;;;0.40;0.40;;;8.30;94.10;;;;;;4958221;28;20202;-69
2022/11/23 09:38:50;;;;;;;0.55;0.55;;;8.40;94.50;;;;;;4958070;28;20236;-68
2022/11/23 09:41:19;;;;;;;0.40;0.40;;;8.50;94.70;;;;;;4958142;28;20248;-67
2022/11/23 09:43:55;;;;;;;0.50;0.50;;;8.60;94.60;;;;;;4958156;28;20803;-69
2022/11/23 09:46:31;;;;;;;0.98;0.75;;;8.80;95.00;;;;;;4957900;28;20197;-70
2022/11/23 09:49:15;;;;;;;0.40;0.40;;;9.30;94.40;;;;;;4957860;28;20146;-67
2022/11/23 09:51:41;;;;;;;0.43;0.43;;;10.30;92.90;;;;;;4958169;28;20173;-68
2022/11/23 09:54:30;;;;;;;0.95;0.95;;;10.80;91.20;;;;;;4957985;28;20177;-66
2022/11/23 09:56:57;;;;;;;1.30;0.60;;;10.80;90.10;;;;;;4957338;28;20209;-69
2022/11/23 09:59:29;;;;;;;0.47;0.47;;;10.60;90.30;;;;;;4957660;28;20261;-68
2022/11/23 10:01:55;;;;;;;1.25;0.82;;;10.60;90.00;;;;;;4957781;28;20178;-68
2022/11/23 10:04:22;;;;;;;0.40;0.40;;;10.40;88.70;;;;;;4956533;29;20635;-67
2022/11/23 10:06:54;;;;;;;0.63;0.63;;;10.20;90.20;;;;;;4957922;28;20225;-68
2022/11/23 10:09:30;;;;;;;0.40;0.40;;;11.00;90.30;;;;;;4957785;28;20902;-69
2022/11/23 10:12:12;;;;;;;0.57;0.57;;;12.20;87.10;;;;;;4957808;28;20416;-70
2022/11/23 10:15:10;;;;;;;0.80;0.50;;;13.30;84.30;;;;;;4957609;28;20488;-68
2022/11/23 10:17:53;;;;;;;2.20;0.80;;;14.30;79.50;;;;;;4957510;28;20433;-68
2022/11/23 10:20:35;;;;;;;3.27;1.33;;;14.70;77.80;;;;;;4957400;28;20977;-68
2022/11/23 10:23:05;;;;;;;0.57;0.57;;;15.10;76.60;;;;;;4957643;28;20512;-69
2022/11/23 10:25:38;;;;;;;0.33;0.33;;;14.60;77.80;;;;;;4957418;28;20516;-67
2022/11/23 10:28:12;;;;;;;0.60;0.60;;;14.10;79.10;;;;;;4957430;28;20396;-68
2022/11/23 10:30:38;;;;;;;0.40;0.40;;;13.80;76.90;;;;;;4957375;28;20432;-68
2022/11/23 10:33:15;;;;;;;0.50;0.50;;;13.90;78.70;;;;;;4957408;28;20412;-68
2022/11/23 10:35:41;;;;;;;0.50;0.50;;;14.00;77.80;;;;;;4957148;28;20467;-67
2022/11/23 10:38:15;;;;;;;0.37;0.37;;;14.30;77.80;;;;;;4955882;29;20837;-68
2022/11/23 10:41:01;;;;;;;0.40;0.40;;;14.50;75.80;;;;;;4957046;28;20201;-69
2022/11/23 10:43:52;;;;;;;0.40;0.40;;;14.00;74.30;;;;;;4957288;28;20452;-69
2022/11/23 10:46:31;;;;;;;0.30;0.30;;;13.50;75.60;;;;;;4949054;28;20449;-68
2022/11/23 10:49:08;;;;;;;0.30;0.30;;;12.80;80.30;;;;;;4956885;28;20835;-68
2022/11/23 10:51:34;;;;;;;0.60;0.50;;;12.50;83.40;;;;;;4957015;28;20492;-67
2022/11/23 10:54:05;;;;;;;0.40;0.40;;;12.30;84.30;;;;;;4956839;28;20496;-70
2022/11/23 10:56:32;;;;;;;0.30;0.30;;;11.90;83.00;;;;;;4956120;28;20863;-70
2022/11/23 10:58:57;;;;;;;0.40;0.40;;;11.40;83.70;;;;;;4956587;28;20785;-68
2022/11/23 11:01:26;;;;;;;0.40;0.40;;;11.30;84.50;;;;;;4956725;28;20456;-69
2022/11/23 11:03:53;;;;;;;0.50;0.50;;;11.30;85.60;;;;;;4956664;28;20538;-67
2022/11/23 11:06:28;;;;;;;0.70;0.70;;;10.80;85.00;;;;;;4956592;28;20435;-69
2022/11/23 11:08:59;;;;;;;0.40;0.40;;;10.70;86.40;;;;;;4956633;28;20204;-67
2022/11/23 11:11:26;;;;;;;0.60;0.60;;;10.50;86.40;;;;;;4956506;28;20186;-69
2022/11/23 11:14:04;;;;;;;0.50;0.50;;;9.70;87.80;;;;;;4956311;28;20174;-66
2022/11/23 11:16:45;;;;;;;0.40;0.40;;;9.30;90.00;;;;;;4956147;28;20204;-69
2022/11/23 11:19:32;;;;;;;0.85;0.77;;;9.00;91.10;;;;;;4956351;28;20201;-69
2022/11/23 11:22:00;;;;;;;1.05;1.05;;;9.10;91.10;;;;;;4956269;28;20187;-69
2022/11/23 11:24:25;;;;;;;0.63;0.63;;;9.10;91.20;;;;;;4954775;28;20182;-68
2022/11/23 11:26:57;;;;;;;0.40;0.40;;;9.00;90.80;;;;;;4956402;28;20269;-69
2022/11/23 11:29:46;;;;;;;0.30;0.30;;;9.00;91.20;;;;;;4956210;28;20170;-69
2022/11/23 11:32:14;;;;;;;0.30;0.30;;;9.00;91.80;;;;;;4956378;28;20177;-69
2022/11/23 11:34:50;;;;;;;0.70;0.70;;;9.10;91.60;;;;;;4956088;28;20264;-69
2022/11/23 11:37:36;;;;;;;0.38;0.38;;;9.30;91.60;;;;;;4956044;28;20192;-68
2022/11/23 11:40:08;;;;;;;0.40;0.40;;;9.40;92.10;;;;;;4955799;28;20204;-68
2022/11/23 11:43:00;;;;;;;0.30;0.30;;;9.20;90.80;;;;;;4956027;28;20647;-67
2022/11/23 11:45:30;;;;;;;0.30;0.30;;;8.90;89.60;;;;;;4955927;28;20203;-69
2022/11/23 11:48:17;;;;;;;0.60;0.60;;;8.40;89.60;;;;;;4955937;28;20300;-69
2022/11/23 11:50:55;;;;;;;0.32;0.32;;;8.30;90.80;;;;;;4955760;28;20252;-66
2022/11/23 11:53:32;;;;;;;0.70;0.60;;;8.30;92.50;;;;;;4956070;28;20259;-68
2022/11/23 11:56:35;;;;;;;0.40;0.40;;;8.30;92.20;;;;;;4954597;28;20208;-67
2022/11/23 11:59:14;;;;;;;2.35;0.50;;;8.30;92.60;;;;;;4955030;29;20191;-69
2022/11/23 12:01:44;;;;;;;0.40;0.40;;;8.30;92.10;;;;;;4955743;28;20204;-68
2022/11/23 12:04:23;;;;;;;0.50;0.50;;;8.30;92.30;;;;;;4955917;28;20588;-69
2022/11/23 12:07:11;;;;;;;0.40;0.40;;;8.30;92.10;;;;;;4955847;28;20215;-69
2022/11/23 12:09:43;;;;;;;0.30;0.30;;;8.20;93.10;;;;;;4955680;28;20177;-69
2022/11/23 12:12:18;;;;;;;0.30;0.30;;;8.20;93.20;;;;;;4955731;28;20181;-67
2022/11/23 12:14:47;;;;;;;0.40;0.40;;;8.20;92.80;;;;;;4955679;28;20172;-67
2022/11/23 12:17:22;;;;;;;0.40;0.40;;;8.00;93.40;;;;;;4955290;28;20252;-68
2022/11/23 12:19:57;;;;;;;0.30;0.30;;;7.80;92.90;;;;;;4955306;28;20611;-67
2022/11/23 12:23:00;;;;;;;0.40;0.40;;;7.90;93.60;;;;;;4955679;28;20176;-67
2022/11/23 12:25:35;;;;;;;0.50;0.50;;;7.90;93.60;;;;;;4955354;28;20248;-68
2022/11/23 12:28:19;;;;;;;0.30;0.30;;;7.90;93.10;;;;;;4955425;28;20177;-68
2022/11/23 12:31:26;;;;;;;0.30;0.30;;;8.00;93.70;;;;;;4955228;28;20169;-69
2022/11/23 12:34:02;;;;;;;0.35;0.35;;;7.90;92.60;;;;;;4903420;28;20325;-68
2022/11/23 12:37:01;;;;;;;0.52;0.52;;;7.80;92.20;;;;;;4955242;28;20195;-68
2022/11/23 12:39:27;;;;;;;0.30;0.30;;;8.00;92.40;;;;;;4955099;29;20176;-68
2022/11/23 12:41:55;;;;;;;0.40;0.40;;;8.10;93.30;;;;;;4955467;28;20634;-69
2022/11/23 12:44:58;;;;;;;0.40;0.40;;;8.20;93.60;;;;;;4955223;28;20183;-68
2022/11/23 12:47:33;;;;;;;0.60;0.60;;;8.40;93.50;;;;;;4955289;28;20195;-69
2022/11/23 12:50:02;;;;;;;0.40;0.40;;;8.50;93.50;;;;;;4955153;28;20172;-69
2022/11/23 12:52:36;;;;;;;0.40;0.40;;;8.60;94.50;;;;;;4955355;28;20227;-69
2022/11/23 12:55:28;;;;;;;1.25;1.25;;;8.50;94.70;;;;;;4955254;28;20544;-68
2022/11/23 12:58:23;;;;;;;0.40;0.40;;;8.30;92.70;;;;;;4955243;28;20177;-66
2022/11/23 13:01:18;;;;;;;0.47;0.47;;;8.10;93.10;;;;;;4951813;29;20220;-68
2022/11/23 13:04:08;;;;;;;1.85;0.73;;;7.90;93.40;;;;;;4949663;29;20188;-69
2022/11/23 13:06:50;;;;;;;0.63;0.40;;;7.80;93.80;;;;;;4955165;28;20214;-68